createdAt,value
2019-02-14T00:01:52.276Z,103529.50
2019-02-14T00:04:22.440Z,103520.89
2019-02-14T00:06:52.497Z,103525.68
2019-02-14T00:09:22.795Z,103527.39
2019-02-14T00:11:52.988Z,103534.78
2019-02-14T00:14:23.139Z,103536.89
2019-02-14T00:16:53.320Z,103526.30
2019-02-14T00:19:23.502Z,103527.48
2019-02-14T00:21:53.670Z,103528.67
2019-02-14T00:24:23.923Z,103527.38
2019-02-14T00:26:54.066Z,103532.38
2019-02-14T00:29:24.264Z,103529.25
2019-02-14T00:31:54.450Z,103530.47
2019-02-14T00:34:26.296Z,103534.95
2019-02-14T00:36:56.475Z,103529.94
2019-02-14T00:39:26.700Z,103526.84
2019-02-14T00:41:57.002Z,103516.45
2019-02-14T00:44:27.046Z,103511.25
2019-02-14T00:46:57.178Z,103506.83
2019-02-14T00:49:27.394Z,103503.75
2019-02-14T00:51:57.483Z,103511.06
2019-02-14T00:54:27.750Z,103513.13
2019-02-14T00:56:57.939Z,103509.94
2019-02-14T00:59:28.049Z,103501.53
2019-02-14T01:01:58.148Z,103511.41
2019-02-14T01:04:28.237Z,103502.61
2019-02-14T01:06:58.364Z,103504.23
2019-02-14T01:09:30.708Z,103492.91
2019-02-14T01:12:00.912Z,103494.20
2019-02-14T01:14:31.904Z,103488.00
2019-02-14T01:17:02.421Z,103493.48
2019-02-14T01:19:32.571Z,103491.30
2019-02-14T01:22:02.804Z,103493.00
2019-02-14T01:24:32.926Z,103496.41
2019-02-14T01:27:03.132Z,103498.08
2019-02-14T01:29:33.382Z,103492.41
2019-02-14T01:32:03.796Z,103488.98
2019-02-14T01:34:34.026Z,103497.48
2019-02-14T01:37:04.325Z,103502.59
2019-02-14T01:39:34.409Z,103508.45
2019-02-14T01:42:04.664Z,103504.53
2019-02-14T01:44:34.753Z,103506.23
2019-02-14T01:47:04.958Z,103511.34
2019-02-14T01:49:35.112Z,103505.02
2019-02-14T01:52:05.339Z,103508.02
2019-02-14T01:54:35.429Z,103514.28
2019-02-14T01:57:06.928Z,103524.34
2019-02-14T01:59:37.016Z,103520.25
2019-02-14T02:02:07.327Z,103531.81
2019-02-14T02:04:37.543Z,103530.03
2019-02-14T02:07:07.954Z,103534.98
2019-02-14T02:09:38.110Z,103531.17
2019-02-14T02:12:08.452Z,103530.77
2019-02-14T02:14:38.590Z,103522.62
2019-02-14T02:17:08.833Z,103523.27
2019-02-14T02:19:39.055Z,103528.08
2019-02-14T02:22:09.242Z,103529.55
2019-02-14T02:24:39.445Z,103525.53
2019-02-14T02:27:09.607Z,103529.22
2019-02-14T02:29:39.802Z,103527.02
2019-02-14T02:32:09.959Z,103527.42
2019-02-14T02:34:40.063Z,103529.50
2019-02-14T02:37:10.206Z,103524.38
2019-02-14T02:39:40.351Z,103533.02
2019-02-14T02:42:10.408Z,103532.84
2019-02-14T02:44:40.883Z,103539.92
2019-02-14T02:47:10.975Z,103531.96
2019-02-14T02:49:41.124Z,103537.98
2019-02-14T02:52:11.308Z,103536.35
2019-02-14T02:54:41.461Z,103536.02
2019-02-14T02:57:18.946Z,103524.01
2019-02-14T02:59:49.126Z,103528.08
2019-02-14T03:02:19.303Z,103539.10
2019-02-14T03:04:49.363Z,103540.58
2019-02-14T03:07:19.603Z,103543.94
2019-02-14T03:09:49.720Z,103543.85
2019-02-14T03:12:20.003Z,103545.15
2019-02-14T03:14:50.181Z,103543.85
2019-02-14T03:17:20.367Z,103546.53
2019-02-14T03:19:50.525Z,103548.08
2019-02-14T03:22:20.744Z,103551.17
2019-02-14T03:24:50.790Z,103555.19
2019-02-14T03:27:20.859Z,103548.64
2019-02-14T03:29:51.083Z,103563.86
2019-02-14T03:32:21.242Z,103567.25
2019-02-14T03:34:51.422Z,103569.84
2019-02-14T03:37:21.666Z,103574.50
2019-02-14T03:39:51.755Z,103588.55
2019-02-14T03:42:21.839Z,103582.21
2019-02-14T03:44:52.026Z,103585.60
2019-02-14T03:47:22.191Z,103586.77
2019-02-14T03:49:52.417Z,103582.66
2019-02-14T03:52:22.537Z,103577.76
2019-02-14T03:54:52.815Z,103575.03
2019-02-14T03:57:23.073Z,103568.95
2019-02-14T03:59:53.267Z,103569.23
2019-02-14T04:02:23.404Z,103575.09
2019-02-14T04:04:53.559Z,103590.52
2019-02-14T04:07:23.797Z,103585.52
2019-02-14T04:09:53.999Z,103590.30
2019-02-14T04:12:24.270Z,103590.56
2019-02-14T04:14:54.441Z,103594.05
2019-02-14T04:17:24.690Z,103590.07
2019-02-14T04:19:54.822Z,103597.19
2019-02-14T04:22:25.035Z,103603.98
2019-02-14T04:24:55.181Z,103607.60
2019-02-14T04:27:25.358Z,103608.77
2019-02-14T04:29:55.514Z,103608.05
2019-02-14T04:32:25.807Z,103605.20
2019-02-14T04:34:55.974Z,103605.25
2019-02-14T04:37:26.203Z,103602.92
2019-02-14T04:39:56.485Z,103597.52
2019-02-14T04:42:26.863Z,103589.48
2019-02-14T04:44:57.075Z,103588.72
2019-02-14T04:47:27.185Z,103574.97
2019-02-14T04:49:57.334Z,103564.74
2019-02-14T04:52:27.687Z,103566.27
2019-02-14T04:54:57.854Z,103566.92
2019-02-14T04:57:27.921Z,103570.90
2019-02-14T04:59:58.156Z,103570.50
2019-02-14T05:02:28.343Z,103568.44
2019-02-14T05:04:58.475Z,103565.84
2019-02-14T05:07:28.674Z,103559.91
2019-02-14T05:09:58.851Z,103569.55
2019-02-14T05:12:28.938Z,103563.73
2019-02-14T05:14:59.181Z,103555.78
2019-02-14T05:17:29.375Z,103552.92
2019-02-14T05:19:59.667Z,103562.73
2019-02-14T05:22:29.960Z,103567.73
2019-02-14T05:25:00.143Z,103565.27
2019-02-14T05:27:30.420Z,103568.48
2019-02-14T05:30:00.606Z,103561.64
2019-02-14T05:32:30.827Z,103568.34
2019-02-14T05:35:01.038Z,103570.25
2019-02-14T05:37:31.332Z,103582.54
2019-02-14T05:40:01.571Z,103589.23
2019-02-14T05:42:31.803Z,103588.47
2019-02-14T05:45:02.158Z,103589.89
2019-02-14T05:47:32.419Z,103582.61
2019-02-14T05:50:02.560Z,103587.39
2019-02-14T05:52:32.777Z,103591.41
2019-02-14T05:55:03.129Z,103590.11
2019-02-14T05:57:33.335Z,103584.31
2019-02-14T06:00:03.799Z,103589.64
2019-02-14T06:02:33.946Z,103589.42
2019-02-14T06:05:04.232Z,103589.97
2019-02-14T06:07:34.604Z,103587.92
2019-02-14T06:10:05.174Z,103579.92
2019-02-14T06:12:39.379Z,103577.21
2019-02-14T06:15:10.250Z,103575.82
2019-02-14T06:17:40.565Z,103572.70
2019-02-14T06:20:11.189Z,103570.91
2019-02-14T06:22:41.347Z,103576.46
2019-02-14T06:25:12.446Z,103583.61
2019-02-14T06:27:42.714Z,103590.48
2019-02-14T06:30:14.071Z,103598.41
2019-02-14T06:32:46.119Z,103601.67
2019-02-14T06:35:16.405Z,103603.14
2019-02-14T06:37:46.620Z,103591.53
2019-02-14T06:40:16.812Z,103588.81
2019-02-14T06:42:47.078Z,103587.78
2019-02-14T06:45:17.322Z,103587.78
2019-02-14T06:47:47.490Z,103590.87
2019-02-14T06:50:17.732Z,103595.42
2019-02-14T06:52:47.972Z,103600.11
2019-02-14T06:55:18.160Z,103596.09
2019-02-14T06:57:48.406Z,103597.27
2019-02-14T07:00:18.716Z,103588.50
2019-02-14T07:02:48.937Z,103584.22
2019-02-14T07:05:19.357Z,103581.23
2019-02-14T07:07:52.278Z,103586.91
2019-02-14T07:10:22.482Z,103576.05
2019-02-14T07:12:52.568Z,103589.39
2019-02-14T07:15:22.964Z,103600.65
2019-02-14T07:17:53.203Z,103605.20
2019-02-14T07:20:23.320Z,103603.78
2019-02-14T07:22:53.531Z,103611.32
2019-02-14T07:25:23.747Z,103610.70
2019-02-14T07:27:53.934Z,103610.83
2019-02-14T07:30:24.291Z,103609.41
2019-02-14T07:32:54.468Z,103596.28
2019-02-14T07:35:24.824Z,103595.34
2019-02-14T07:37:55.074Z,103598.28
2019-02-14T07:40:25.264Z,103609.94
2019-02-14T07:42:55.430Z,103611.05
2019-02-14T07:45:25.867Z,103613.23
2019-02-14T07:47:56.480Z,103618.50
2019-02-14T07:50:27.030Z,103619.87
2019-02-14T07:52:57.329Z,103620.31
2019-02-14T07:55:27.493Z,103622.09
2019-02-14T07:57:57.705Z,103630.34
2019-02-14T08:00:27.951Z,103633.29
2019-02-14T08:02:58.293Z,103631.54
2019-02-14T08:05:28.557Z,103627.63
2019-02-14T08:08:00.635Z,103624.17
2019-02-14T08:10:30.774Z,103627.23
2019-02-14T08:13:00.950Z,103615.52
2019-02-14T08:15:31.235Z,103612.48
2019-02-14T08:18:01.466Z,103618.52
2019-02-14T08:20:31.775Z,103628.33
2019-02-14T08:23:02.012Z,103630.50
2019-02-14T08:25:32.222Z,103633.18
2019-02-14T08:28:02.486Z,103634.94
2019-02-14T08:30:32.715Z,103631.51
2019-02-14T08:33:02.926Z,103628.23
2019-02-14T08:35:33.331Z,103631.66
2019-02-14T08:38:03.431Z,103637.59
2019-02-14T08:40:33.874Z,103633.13
2019-02-14T08:43:04.105Z,103631.77
2019-02-14T08:45:34.356Z,103626.13
2019-02-14T08:48:04.648Z,103617.09
2019-02-14T08:50:34.884Z,103614.14
2019-02-14T08:53:05.277Z,103614.95
2019-02-14T08:55:35.555Z,103615.40
2019-02-14T08:58:06.816Z,103616.73
2019-02-14T09:00:37.181Z,103615.59
2019-02-14T09:03:08.366Z,103621.12
2019-02-14T09:05:38.790Z,103618.15
2019-02-14T09:08:12.530Z,103618.27
2019-02-14T09:10:47.965Z,103626.91
2019-02-14T09:13:21.125Z,103634.73
2019-02-14T09:15:51.289Z,103643.05
2019-02-14T09:18:21.628Z,103637.77
2019-02-14T09:20:51.829Z,103632.99
2019-02-14T09:23:22.241Z,103625.51
2019-02-14T09:25:52.591Z,103625.53
2019-02-14T09:28:25.723Z,103623.36
2019-02-14T09:30:55.955Z,103626.87
2019-02-14T09:33:26.253Z,103641.08
2019-02-14T09:35:56.478Z,103653.02
2019-02-14T09:38:26.689Z,103654.22
2019-02-14T09:40:56.909Z,103650.25
2019-02-14T09:43:29.836Z,103656.88
2019-02-14T09:45:59.064Z,103651.28
2019-02-14T09:48:29.336Z,103649.09
2019-02-14T09:50:59.675Z,103650.00
2019-02-14T09:53:30.286Z,103647.59
2019-02-14T09:56:00.518Z,103642.39
2019-02-14T09:58:30.755Z,103639.78
2019-02-14T10:01:01.176Z,103642.50
2019-02-14T10:03:31.452Z,103641.67
2019-02-14T10:06:01.754Z,103642.56
2019-02-14T10:08:32.111Z,103641.25
2019-02-14T10:11:02.306Z,103644.74
2019-02-14T10:13:32.571Z,103656.86
2019-02-14T10:16:02.798Z,103650.75
2019-02-14T10:18:32.960Z,103649.43
2019-02-14T10:21:04.516Z,103651.20
2019-02-14T10:23:34.785Z,103654.78
2019-02-14T10:26:05.021Z,103658.27
2019-02-14T10:28:35.308Z,103658.35
2019-02-14T10:31:06.793Z,103663.85
2019-02-14T10:33:37.123Z,103655.59
2019-02-14T10:36:07.382Z,103649.14
2019-02-14T10:38:40.095Z,103644.38
2019-02-14T10:41:10.318Z,103654.06
2019-02-14T10:43:48.664Z,103662.27
2019-02-14T10:46:12.529Z,103662.85
2019-02-14T10:48:42.725Z,103661.34
2019-02-14T10:51:12.898Z,103661.81
2019-02-14T10:53:43.173Z,103654.36
2019-02-14T10:56:13.406Z,103654.63
2019-02-14T10:58:43.649Z,103658.67
2019-02-14T11:01:13.906Z,103655.61
2019-02-14T11:03:44.332Z,103650.75
2019-02-14T11:06:14.510Z,103639.75
2019-02-14T11:08:44.681Z,103639.00
2019-02-14T11:11:14.927Z,103642.07
2019-02-14T11:13:45.190Z,103641.28
2019-02-14T11:16:15.332Z,103646.04
2019-02-14T11:18:45.501Z,103634.73
2019-02-14T11:21:15.585Z,103633.10
2019-02-14T11:23:45.808Z,103631.89
2019-02-14T11:26:16.066Z,103625.80
2019-02-14T11:28:46.236Z,103630.95
2019-02-14T11:31:16.436Z,103633.49
2019-02-14T11:33:46.543Z,103637.49
2019-02-14T11:36:17.006Z,103640.92
2019-02-14T11:38:47.318Z,103634.72
2019-02-14T11:41:17.580Z,103621.88
2019-02-14T11:43:47.762Z,103623.44
2019-02-14T11:46:18.029Z,103624.75
2019-02-14T11:48:48.280Z,103627.19
2019-02-14T11:51:18.477Z,103635.04
2019-02-14T11:53:48.747Z,103633.13
2019-02-14T11:56:19.006Z,103623.97
2019-02-14T11:58:49.210Z,103615.69
2019-02-14T12:01:19.337Z,103617.80
2019-02-14T12:03:49.601Z,103612.13
2019-02-14T12:06:19.781Z,103616.56
2019-02-14T12:08:59.595Z,103612.28
2019-02-14T12:11:22.127Z,103614.97
2019-02-14T12:13:52.391Z,103614.98
2019-02-14T12:16:22.573Z,103610.95
2019-02-14T12:18:52.888Z,103618.86
2019-02-14T12:21:23.556Z,103617.48
2019-02-14T12:23:56.832Z,103615.71
2019-02-14T12:26:27.037Z,103612.55
2019-02-14T12:28:57.288Z,103612.00
2019-02-14T12:31:27.543Z,103609.33
2019-02-14T12:33:57.778Z,103618.04
2019-02-14T12:36:27.992Z,103611.01
2019-02-14T12:38:58.576Z,103612.66
2019-02-14T12:41:28.835Z,103612.25
2019-02-14T12:43:59.165Z,103608.38
2019-02-14T12:46:29.526Z,103597.51
2019-02-14T12:48:59.650Z,103593.20
2019-02-14T12:51:30.026Z,103589.22
2019-02-14T12:54:00.358Z,103595.63
2019-02-14T12:56:30.690Z,103595.13
2019-02-14T12:59:01.005Z,103591.72
2019-02-14T13:01:31.452Z,103592.34
2019-02-14T13:04:02.337Z,103588.08
2019-02-14T13:06:32.615Z,103586.68
2019-02-14T13:09:07.481Z,103584.28
2019-02-14T13:11:37.628Z,103577.08
2019-02-14T13:14:07.949Z,103575.61
2019-02-14T13:16:38.308Z,103569.45
2019-02-14T13:19:08.622Z,103571.03
2019-02-14T13:21:38.916Z,103582.95
2019-02-14T13:24:09.282Z,103579.02
2019-02-14T13:26:40.587Z,103570.09
2019-02-14T13:29:10.886Z,103570.67
2019-02-14T13:31:41.158Z,103574.88
2019-02-14T13:34:11.377Z,103571.03
2019-02-14T13:36:41.511Z,103564.91
2019-02-14T13:39:11.890Z,103567.51
2019-02-14T13:41:42.005Z,103559.90
2019-02-14T13:44:15.233Z,103566.89
2019-02-14T13:46:45.492Z,103553.47
2019-02-14T13:49:15.633Z,103555.19
2019-02-14T13:51:45.752Z,103556.58
2019-02-14T13:54:15.950Z,103565.27
2019-02-14T13:56:53.893Z,103571.23
2019-02-14T13:59:18.130Z,103572.72
2019-02-14T14:01:48.221Z,103564.11
2019-02-14T14:04:18.641Z,103565.48
2019-02-14T14:06:48.820Z,103558.05
2019-02-14T14:09:19.070Z,103556.53
2019-02-14T14:11:49.231Z,103555.06
2019-02-14T14:14:19.435Z,103561.97
2019-02-14T14:16:49.637Z,103561.92
2019-02-14T14:19:19.694Z,103554.91
2019-02-14T14:21:49.841Z,103558.94
2019-02-14T14:24:20.083Z,103564.31
2019-02-14T14:26:50.328Z,103556.95
2019-02-14T14:29:20.480Z,103555.82
2019-02-14T14:31:50.633Z,103548.11
2019-02-14T14:34:21.026Z,103545.13
2019-02-14T14:36:51.276Z,103554.25
2019-02-14T14:39:21.407Z,103548.28
2019-02-14T14:41:51.691Z,103548.23
2019-02-14T14:44:27.915Z,103551.58
2019-02-14T14:47:09.977Z,103540.03
2019-02-14T14:49:40.235Z,103539.42
2019-02-14T14:52:10.396Z,103534.06
2019-02-14T14:54:40.511Z,103541.41
2019-02-14T14:57:10.723Z,103544.38
2019-02-14T14:59:41.005Z,103545.97
2019-02-14T15:02:11.281Z,103544.08
2019-02-14T15:04:41.431Z,103544.36
2019-02-14T15:07:11.557Z,103534.09
2019-02-14T15:09:41.788Z,103545.73
2019-02-14T15:12:11.970Z,103536.92
2019-02-14T15:14:42.145Z,103537.38
2019-02-14T15:17:12.315Z,103537.38
2019-02-14T15:19:42.480Z,103536.07
2019-02-14T15:22:12.697Z,103531.70
2019-02-14T15:24:42.904Z,103528.11
2019-02-14T15:27:13.064Z,103524.14
2019-02-14T15:29:43.142Z,103522.40
2019-02-14T15:32:13.287Z,103526.27
2019-02-14T15:34:43.621Z,103522.63
2019-02-14T15:37:15.379Z,103522.91
2019-02-14T15:39:45.558Z,103521.83
2019-02-14T15:42:15.865Z,103524.19
2019-02-14T15:44:46.164Z,103515.70
2019-02-14T15:47:16.454Z,103509.02
2019-02-14T15:49:49.338Z,103511.48
2019-02-14T15:52:19.564Z,103510.48
2019-02-14T15:54:49.647Z,103507.31
2019-02-14T15:57:20.425Z,103505.39
2019-02-14T15:59:50.831Z,103510.86
2019-02-14T16:02:21.046Z,103502.64
2019-02-14T16:04:52.741Z,103501.55
2019-02-14T16:07:23.230Z,103500.47
2019-02-14T16:09:53.825Z,103510.14
2019-02-14T16:12:24.118Z,103514.48
2019-02-14T16:14:54.302Z,103508.83
2019-02-14T16:17:27.753Z,103512.69
2019-02-14T16:20:21.164Z,103517.81
2019-02-14T16:22:30.394Z,103516.21
2019-02-14T16:25:02.501Z,103521.14
2019-02-14T16:27:40.475Z,103518.64
2019-02-14T16:30:12.522Z,103520.60
2019-02-14T16:32:42.751Z,103522.00
2019-02-14T16:35:15.914Z,103514.41
2019-02-14T16:37:48.265Z,103511.84
2019-02-14T16:40:27.186Z,103512.50
2019-02-14T16:42:50.146Z,103514.75
2019-02-14T16:45:20.239Z,103517.23
2019-02-14T16:47:50.529Z,103516.44
2019-02-14T16:50:20.720Z,103511.63
2019-02-14T16:52:50.930Z,103518.19
2019-02-14T16:55:21.043Z,103516.70
2019-02-14T16:57:51.241Z,103516.06
2019-02-14T17:00:21.321Z,103525.91
2019-02-14T17:02:51.814Z,103530.45
2019-02-14T17:05:22.365Z,103530.16
2019-02-14T17:07:52.801Z,103531.69
2019-02-14T17:10:23.318Z,103531.96
2019-02-14T17:12:54.061Z,103531.85
2019-02-14T17:15:24.592Z,103537.85
2019-02-14T17:17:55.360Z,103539.04
2019-02-14T17:20:25.759Z,103536.27
2019-02-14T17:22:56.379Z,103537.05
2019-02-14T17:25:27.054Z,103536.20
2019-02-14T17:27:57.713Z,103535.48
2019-02-14T17:30:28.194Z,103550.13
2019-02-14T17:32:58.784Z,103553.56
2019-02-14T17:35:29.321Z,103554.00
2019-02-14T17:37:59.782Z,103560.07
2019-02-14T17:40:30.216Z,103553.78
2019-02-14T17:43:00.859Z,103563.44
2019-02-14T17:45:31.392Z,103560.34
2019-02-14T17:48:01.816Z,103555.19
2019-02-14T17:50:32.275Z,103543.66
2019-02-14T17:53:04.567Z,103552.08
2019-02-14T17:55:34.742Z,103549.60
2019-02-14T17:58:05.023Z,103555.72
2019-02-14T18:00:35.222Z,103557.34
2019-02-14T18:03:06.781Z,103549.84
2019-02-14T18:05:36.968Z,103549.84
2019-02-14T18:08:07.198Z,103548.58
2019-02-14T18:10:37.334Z,103552.16
2019-02-14T18:13:07.482Z,103549.59
2019-02-14T18:15:37.712Z,103550.48
2019-02-14T18:18:07.843Z,103550.79
2019-02-14T18:20:37.888Z,103544.58
2019-02-14T18:23:08.088Z,103544.87
2019-02-14T18:25:38.349Z,103541.57
2019-02-14T18:28:08.501Z,103544.77
2019-02-14T18:30:38.595Z,103541.98
2019-02-14T18:33:08.655Z,103539.04
2019-02-14T18:35:43.861Z,103538.74
2019-02-14T18:38:13.939Z,103538.63
2019-02-14T18:40:44.177Z,103549.25
2019-02-14T18:43:14.305Z,103542.52
2019-02-14T18:45:44.556Z,103540.85
2019-02-14T18:48:14.677Z,103538.33
2019-02-14T18:50:44.826Z,103529.63
2019-02-14T18:53:14.943Z,103538.73
2019-02-14T18:55:45.084Z,103537.24
2019-02-14T18:58:25.801Z,103540.73
2019-02-14T19:00:56.314Z,103538.94
2019-02-14T19:03:25.258Z,103541.89
2019-02-14T19:05:55.330Z,103536.20
2019-02-14T19:08:25.457Z,103536.38
2019-02-14T19:10:55.587Z,103537.19
2019-02-14T19:13:25.811Z,103533.69
2019-02-14T19:15:56.054Z,103536.00
2019-02-14T19:18:26.765Z,103532.28
2019-02-14T19:20:57.126Z,103541.96
2019-02-14T19:23:27.577Z,103538.16
2019-02-14T19:25:58.275Z,103539.26
2019-02-14T19:28:28.979Z,103524.73
2019-02-14T19:30:59.523Z,103537.96
2019-02-14T19:33:30.021Z,103533.55
2019-02-14T19:36:00.433Z,103535.95
2019-02-14T19:38:30.967Z,103535.63
2019-02-14T19:41:01.509Z,103536.41
2019-02-14T19:43:32.017Z,103535.22
2019-02-14T19:46:02.888Z,103529.54
2019-02-14T19:48:34.146Z,103535.92
2019-02-14T19:51:05.579Z,103529.59
2019-02-14T19:53:36.177Z,103534.59
2019-02-14T19:56:06.942Z,103524.90
2019-02-14T19:58:37.446Z,103529.98
2019-02-14T20:01:08.062Z,103532.87
2019-02-14T20:03:38.615Z,103536.27
2019-02-14T20:06:12.708Z,103533.77
2019-02-14T20:08:43.254Z,103527.91
2019-02-14T20:11:13.783Z,103524.33
2019-02-14T20:13:49.580Z,103530.30
2019-02-14T20:16:16.609Z,103520.31
2019-02-14T20:18:47.819Z,103520.89
2019-02-14T20:21:18.448Z,103522.07
2019-02-14T20:23:49.020Z,103512.58
2019-02-14T20:26:19.539Z,103515.75
2019-02-14T20:28:50.067Z,103517.73
2019-02-14T20:31:20.708Z,103521.52
2019-02-14T20:33:51.223Z,103520.91
2019-02-14T20:36:21.731Z,103517.30
2019-02-14T20:38:52.269Z,103518.11
2019-02-14T20:41:23.125Z,103523.58
2019-02-14T20:43:53.634Z,103521.67
2019-02-14T20:46:24.279Z,103519.25
2019-02-14T20:48:54.960Z,103516.81
2019-02-14T20:51:25.415Z,103514.02
2019-02-14T20:53:56.051Z,103508.09
2019-02-14T20:56:26.563Z,103518.07
2019-02-14T20:58:57.193Z,103512.27
2019-02-14T21:01:27.920Z,103508.45
2019-02-14T21:03:58.528Z,103515.23
2019-02-14T21:06:29.001Z,103512.19
2019-02-14T21:08:59.534Z,103508.57
2019-02-14T21:11:30.169Z,103506.86
2019-02-14T21:14:00.799Z,103501.22
2019-02-14T21:16:32.937Z,103512.89
2019-02-14T21:19:03.530Z,103516.78
2019-02-14T21:21:34.399Z,103518.92
2019-02-14T21:24:05.163Z,103519.20
2019-02-14T21:26:35.806Z,103515.10
2019-02-14T21:29:07.460Z,103513.59
2019-02-14T21:31:37.966Z,103509.73
2019-02-14T21:34:08.524Z,103502.55
2019-02-14T21:36:39.166Z,103516.41
2019-02-14T21:39:10.291Z,103515.80
2019-02-14T21:41:40.926Z,103512.40
2019-02-14T21:44:11.458Z,103514.78
2019-02-14T21:46:41.903Z,103513.23
2019-02-14T21:49:12.526Z,103514.04
2019-02-14T21:51:43.690Z,103512.00
2019-02-14T21:54:17.337Z,103505.18
2019-02-14T21:56:46.585Z,103511.33
2019-02-14T21:59:17.205Z,103502.31
2019-02-14T22:01:48.373Z,103514.25
2019-02-14T22:04:18.940Z,103511.45
2019-02-14T22:06:49.459Z,103506.41
2019-02-14T22:09:20.035Z,103491.08
2019-02-14T22:11:50.534Z,103500.36
2019-02-14T22:14:21.076Z,103498.84
2019-02-14T22:16:51.594Z,103491.69
2019-02-14T22:19:22.142Z,103498.66
2019-02-14T22:21:52.661Z,103498.44
2019-02-14T22:24:23.200Z,103500.68
2019-02-14T22:26:53.748Z,103493.91
2019-02-14T22:29:24.660Z,103504.49
2019-02-14T22:31:55.171Z,103495.26
2019-02-14T22:34:25.811Z,103494.60
2019-02-14T22:36:55.935Z,103499.77
2019-02-14T22:39:26.490Z,103500.04
2019-02-14T22:41:56.556Z,103496.70
2019-02-14T22:44:26.700Z,103498.67
2019-02-14T22:46:56.912Z,103498.05
2019-02-14T22:49:27.114Z,103496.12
2019-02-14T22:51:57.262Z,103494.98
2019-02-14T22:54:27.595Z,103489.05
2019-02-14T22:56:57.743Z,103490.79
2019-02-14T22:59:28.016Z,103490.84
2019-02-14T23:01:58.208Z,103489.20
2019-02-14T23:04:28.317Z,103501.78
2019-02-14T23:06:58.384Z,103494.29
2019-02-14T23:09:28.605Z,103495.36
2019-02-14T23:11:59.043Z,103497.69
2019-02-14T23:14:29.192Z,103492.55
2019-02-14T23:16:59.444Z,103493.08
2019-02-14T23:19:29.692Z,103493.52
2019-02-14T23:21:59.987Z,103492.53
2019-02-14T23:24:30.342Z,103498.63
2019-02-14T23:27:00.604Z,103499.43
2019-02-14T23:29:30.882Z,103498.27
2019-02-14T23:32:01.252Z,103502.05
2019-02-14T23:34:31.518Z,103503.61
2019-02-14T23:37:01.767Z,103503.11
2019-02-14T23:39:33.969Z,103503.91
2019-02-14T23:42:04.248Z,103504.66
2019-02-14T23:44:34.616Z,103508.05
2019-02-14T23:47:04.925Z,103508.97
2019-02-14T23:49:35.014Z,103510.53
2019-02-14T23:52:05.184Z,103509.62
2019-02-14T23:54:35.248Z,103504.61
2019-02-14T23:57:06.743Z,103498.67
2019-02-14T23:59:36.852Z,103504.50
